sensor_id;sensor_type;location;lat;lon;timestamp;temperature;humidity
44170;DHT22;29836;52.286;9.576;2024-02-16T00:01:17;11.60;99.90
44170;DHT22;29836;52.286;9.576;2024-02-16T00:03:43;11.50;99.90
44170;DHT22;29836;52.286;9.576;2024-02-16T00:06:08;11.50;99.90
44170;DHT22;29836;52.286;9.576;2024-02-16T00:08:34;11.60;99.90
44170;DHT22;29836;52.286;9.576;2024-02-16T00:11:00;11.50;99.90
44170;DHT22;29836;52.286;9.576;2024-02-16T00:13:25;11.50;99.90
44170;DHT22;29836;52.286;9.576;2024-02-16T00:15:51;11.40;99.90
44170;DHT22;29836;52.286;9.576;2024-02-16T00:18:16;11.30;99.90
44170;DHT22;29836;52.286;9.576;2024-02-16T00:20:42;11.30;99.90
44170;DHT22;29836;52.286;9.576;2024-02-16T00:23:08;11.30;99.90
44170;DHT22;29836;52.286;9.576;2024-02-16T00:25:34;11.20;99.90
44170;DHT22;29836;52.286;9.576;2024-02-16T00:28:00;11.10;99.90
44170;DHT22;29836;52.286;9.576;2024-02-16T00:30:25;11.00;99.90
44170;DHT22;29836;52.286;9.576;2024-02-16T00:32:52;11.00;99.90
44170;DHT22;29836;52.286;9.576;2024-02-16T00:35:18;10.90;99.90
44170;DHT22;29836;52.286;9.576;2024-02-16T00:37:44;10.80;99.90
44170;DHT22;29836;52.286;9.576;2024-02-16T00:40:11;10.60;99.90
44170;DHT22;29836;52.286;9.576;2024-02-16T00:42:37;10.60;99.90
44170;DHT22;29836;52.286;9.576;2024-02-16T00:45:03;10.50;99.90
44170;DHT22;29836;52.286;9.576;2024-02-16T00:47:29;10.50;99.90
44170;DHT22;29836;52.286;9.576;2024-02-16T00:49:55;10.50;99.90
44170;DHT22;29836;52.286;9.576;2024-02-16T00:52:22;10.50;99.90
44170;DHT22;29836;52.286;9.576;2024-02-16T00:54:48;10.50;99.90
44170;DHT22;29836;52.286;9.576;2024-02-16T00:57:13;10.60;99.90
44170;DHT22;29836;52.286;9.576;2024-02-16T00:59:40;10.50;99.90
44170;DHT22;29836;52.286;9.576;2024-02-16T01:02:05;10.40;99.90
44170;DHT22;29836;52.286;9.576;2024-02-16T01:04:31;10.40;99.90
44170;DHT22;29836;52.286;9.576;2024-02-16T01:06:56;10.20;99.90
44170;DHT22;29836;52.286;9.576;2024-02-16T01:09:22;10.20;99.90
44170;DHT22;29836;52.286;9.576;2024-02-16T01:11:48;10.20;99.90
44170;DHT22;29836;52.286;9.576;2024-02-16T01:14:14;10.10;99.90
44170;DHT22;29836;52.286;9.576;2024-02-16T01:16:40;10.20;99.90
44170;DHT22;29836;52.286;9.576;2024-02-16T01:19:05;10.30;99.90
44170;DHT22;29836;52.286;9.576;2024-02-16T01:21:32;10.40;99.90
44170;DHT22;29836;52.286;9.576;2024-02-16T01:23:58;10.50;99.90
44170;DHT22;29836;52.286;9.576;2024-02-16T01:26:26;10.50;99.90
44170;DHT22;29836;52.286;9.576;2024-02-16T01:28:52;10.50;99.90
44170;DHT22;29836;52.286;9.576;2024-02-16T01:31:17;10.40;99.90
44170;DHT22;29836;52.286;9.576;2024-02-16T01:33:43;10.40;99.90
44170;DHT22;29836;52.286;9.576;2024-02-16T01:36:08;10.50;99.90
44170;DHT22;29836;52.286;9.576;2024-02-16T01:38:34;10.40;99.90
44170;DHT22;29836;52.286;9.576;2024-02-16T01:41:00;10.40;99.90
44170;DHT22;29836;52.286;9.576;2024-02-16T01:43:26;10.40;99.90
44170;DHT22;29836;52.286;9.576;2024-02-16T01:45:52;10.40;99.90
44170;DHT22;29836;52.286;9.576;2024-02-16T01:48:18;10.40;99.90
44170;DHT22;29836;52.286;9.576;2024-02-16T01:50:45;10.40;99.90
44170;DHT22;29836;52.286;9.576;2024-02-16T01:53:12;10.50;99.90
44170;DHT22;29836;52.286;9.576;2024-02-16T01:55:38;10.50;99.90
44170;DHT22;29836;52.286;9.576;2024-02-16T01:58:04;10.40;99.90
44170;DHT22;29836;52.286;9.576;2024-02-16T02:00:30;10.30;99.90
44170;DHT22;29836;52.286;9.576;2024-02-16T02:02:56;10.30;99.90
44170;DHT22;29836;52.286;9.576;2024-02-16T02:05:22;10.20;99.90
44170;DHT22;29836;52.286;9.576;2024-02-16T02:07:48;10.10;99.90
44170;DHT22;29836;52.286;9.576;2024-02-16T02:10:14;10.20;99.90
44170;DHT22;29836;52.286;9.576;2024-02-16T02:12:40;10.20;99.90
44170;DHT22;29836;52.286;9.576;2024-02-16T02:15:08;10.20;99.90
44170;DHT22;29836;52.286;9.576;2024-02-16T02:17:34;10.20;99.90
44170;DHT22;29836;52.286;9.576;2024-02-16T02:20:00;10.20;99.90
44170;DHT22;29836;52.286;9.576;2024-02-16T02:22:25;10.20;99.90
44170;DHT22;29836;52.286;9.576;2024-02-16T02:24:52;10.30;99.90
44170;DHT22;29836;52.286;9.576;2024-02-16T02:27:21;10.30;99.90
44170;DHT22;29836;52.286;9.576;2024-02-16T02:29:46;10.20;99.90
44170;DHT22;29836;52.286;9.576;2024-02-16T02:32:12;10.20;99.90
44170;DHT22;29836;52.286;9.576;2024-02-16T02:34:38;10.10;99.90
44170;DHT22;29836;52.286;9.576;2024-02-16T02:37:04;10.20;99.90
44170;DHT22;29836;52.286;9.576;2024-02-16T02:39:30;10.20;99.90
44170;DHT22;29836;52.286;9.576;2024-02-16T02:41:56;10.10;99.90
44170;DHT22;29836;52.286;9.576;2024-02-16T02:44:23;10.10;99.90
44170;DHT22;29836;52.286;9.576;2024-02-16T02:46:49;10.30;99.90
44170;DHT22;29836;52.286;9.576;2024-02-16T02:49:15;10.60;99.90
44170;DHT22;29836;52.286;9.576;2024-02-16T02:51:40;10.90;99.90
44170;DHT22;29836;52.286;9.576;2024-02-16T02:54:06;11.10;99.90
44170;DHT22;29836;52.286;9.576;2024-02-16T02:56:31;11.20;99.90
44170;DHT22;29836;52.286;9.576;2024-02-16T02:58:57;11.20;99.90
44170;DHT22;29836;52.286;9.576;2024-02-16T03:01:22;11.30;99.90
44170;DHT22;29836;52.286;9.576;2024-02-16T03:03:48;11.30;99.90
44170;DHT22;29836;52.286;9.576;2024-02-16T03:06:18;11.30;99.90
44170;DHT22;29836;52.286;9.576;2024-02-16T03:08:43;11.40;99.90
44170;DHT22;29836;52.286;9.576;2024-02-16T03:11:09;11.40;99.90
44170;DHT22;29836;52.286;9.576;2024-02-16T03:13:36;11.30;99.90
44170;DHT22;29836;52.286;9.576;2024-02-16T03:16:01;11.30;99.90
44170;DHT22;29836;52.286;9.576;2024-02-16T03:18:30;11.30;99.90
44170;DHT22;29836;52.286;9.576;2024-02-16T03:20:56;11.30;99.90
44170;DHT22;29836;52.286;9.576;2024-02-16T03:23:23;11.30;99.90
44170;DHT22;29836;52.286;9.576;2024-02-16T03:25:48;11.30;99.90
44170;DHT22;29836;52.286;9.576;2024-02-16T03:28:14;11.40;99.90
44170;DHT22;29836;52.286;9.576;2024-02-16T03:30:41;11.30;99.90
44170;DHT22;29836;52.286;9.576;2024-02-16T03:33:06;11.20;99.90
44170;DHT22;29836;52.286;9.576;2024-02-16T03:35:33;11.20;99.90
44170;DHT22;29836;52.286;9.576;2024-02-16T03:37:58;11.10;99.90
44170;DHT22;29836;52.286;9.576;2024-02-16T03:40:24;11.10;99.90
44170;DHT22;29836;52.286;9.576;2024-02-16T03:42:50;11.20;99.90
44170;DHT22;29836;52.286;9.576;2024-02-16T03:45:16;11.20;99.90
44170;DHT22;29836;52.286;9.576;2024-02-16T03:47:42;11.30;99.90
44170;DHT22;29836;52.286;9.576;2024-02-16T03:50:07;11.30;99.90
44170;DHT22;29836;52.286;9.576;2024-02-16T03:52:33;11.30;99.90
44170;DHT22;29836;52.286;9.576;2024-02-16T03:54:59;11.30;99.90
44170;DHT22;29836;52.286;9.576;2024-02-16T03:57:24;11.40;99.90
44170;DHT22;29836;52.286;9.576;2024-02-16T03:59:50;11.40;99.90
44170;DHT22;29836;52.286;9.576;2024-02-16T04:02:16;11.50;99.90
44170;DHT22;29836;52.286;9.576;2024-02-16T04:04:41;11.50;99.90
44170;DHT22;29836;52.286;9.576;2024-02-16T04:07:07;11.60;99.90
44170;DHT22;29836;52.286;9.576;2024-02-16T04:09:34;11.70;99.90
44170;DHT22;29836;52.286;9.576;2024-02-16T04:12:00;11.70;99.90
44170;DHT22;29836;52.286;9.576;2024-02-16T04:14:26;11.70;99.90
44170;DHT22;29836;52.286;9.576;2024-02-16T04:16:52;11.80;99.90
44170;DHT22;29836;52.286;9.576;2024-02-16T04:19:18;11.80;99.90
44170;DHT22;29836;52.286;9.576;2024-02-16T04:21:43;11.80;99.90
44170;DHT22;29836;52.286;9.576;2024-02-16T04:24:10;11.70;99.90
44170;DHT22;29836;52.286;9.576;2024-02-16T04:26:35;11.80;99.90
44170;DHT22;29836;52.286;9.576;2024-02-16T04:29:02;11.80;99.90
44170;DHT22;29836;52.286;9.576;2024-02-16T04:31:29;11.80;99.90
44170;DHT22;29836;52.286;9.576;2024-02-16T04:33:55;11.80;99.90
44170;DHT22;29836;52.286;9.576;2024-02-16T04:36:20;11.90;99.90
44170;DHT22;29836;52.286;9.576;2024-02-16T04:38:46;11.90;99.90
44170;DHT22;29836;52.286;9.576;2024-02-16T04:41:11;11.90;99.90
44170;DHT22;29836;52.286;9.576;2024-02-16T04:43:37;11.90;99.90
44170;DHT22;29836;52.286;9.576;2024-02-16T04:46:02;12.00;99.90
44170;DHT22;29836;52.286;9.576;2024-02-16T04:48:28;12.00;99.90
44170;DHT22;29836;52.286;9.576;2024-02-16T04:50:54;12.00;99.90
44170;DHT22;29836;52.286;9.576;2024-02-16T04:53:20;12.00;99.90
44170;DHT22;29836;52.286;9.576;2024-02-16T04:55:45;11.90;99.90
44170;DHT22;29836;52.286;9.576;2024-02-16T04:58:11;11.90;99.90
44170;DHT22;29836;52.286;9.576;2024-02-16T05:00:37;11.90;99.90
44170;DHT22;29836;52.286;9.576;2024-02-16T05:03:03;12.00;99.90
44170;DHT22;29836;52.286;9.576;2024-02-16T05:05:28;12.10;99.90
44170;DHT22;29836;52.286;9.576;2024-02-16T05:07:54;12.10;99.90
44170;DHT22;29836;52.286;9.576;2024-02-16T05:10:19;12.10;99.90
44170;DHT22;29836;52.286;9.576;2024-02-16T05:12:45;12.10;99.90
44170;DHT22;29836;52.286;9.576;2024-02-16T05:15:11;12.10;99.90
44170;DHT22;29836;52.286;9.576;2024-02-16T05:17:40;12.20;99.90
44170;DHT22;29836;52.286;9.576;2024-02-16T05:20:12;12.20;99.90
44170;DHT22;29836;52.286;9.576;2024-02-16T05:22:46;12.20;99.90
44170;DHT22;29836;52.286;9.576;2024-02-16T05:25:12;12.30;99.90
44170;DHT22;29836;52.286;9.576;2024-02-16T05:27:38;12.20;99.90
44170;DHT22;29836;52.286;9.576;2024-02-16T05:30:05;12.20;99.90
44170;DHT22;29836;52.286;9.576;2024-02-16T05:32:36;12.20;99.90
44170;DHT22;29836;52.286;9.576;2024-02-16T05:35:03;12.10;99.90
44170;DHT22;29836;52.286;9.576;2024-02-16T05:37:37;12.10;99.90
44170;DHT22;29836;52.286;9.576;2024-02-16T05:40:03;12.20;99.90
44170;DHT22;29836;52.286;9.576;2024-02-16T05:42:46;12.10;99.90
44170;DHT22;29836;52.286;9.576;2024-02-16T05:45:11;12.10;99.90
44170;DHT22;29836;52.286;9.576;2024-02-16T05:47:37;12.10;99.90
44170;DHT22;29836;52.286;9.576;2024-02-16T05:50:04;12.10;99.90
44170;DHT22;29836;52.286;9.576;2024-02-16T05:52:30;12.10;99.90
44170;DHT22;29836;52.286;9.576;2024-02-16T05:54:56;12.10;99.90
44170;DHT22;29836;52.286;9.576;2024-02-16T05:57:21;12.20;99.90
44170;DHT22;29836;52.286;9.576;2024-02-16T05:59:48;12.10;99.90
44170;DHT22;29836;52.286;9.576;2024-02-16T06:02:14;12.20;99.90
44170;DHT22;29836;52.286;9.576;2024-02-16T06:04:40;12.10;99.90
44170;DHT22;29836;52.286;9.576;2024-02-16T06:07:06;12.10;99.90
44170;DHT22;29836;52.286;9.576;2024-02-16T06:09:32;12.10;99.90
44170;DHT22;29836;52.286;9.576;2024-02-16T06:12:04;12.10;99.90
44170;DHT22;29836;52.286;9.576;2024-02-16T06:14:33;12.00;99.90
44170;DHT22;29836;52.286;9.576;2024-02-16T06:16:59;11.90;99.90
44170;DHT22;29836;52.286;9.576;2024-02-16T06:19:25;11.90;99.90
44170;DHT22;29836;52.286;9.576;2024-02-16T06:21:52;11.90;99.90
44170;DHT22;29836;52.286;9.576;2024-02-16T06:24:20;11.80;99.90
44170;DHT22;29836;52.286;9.576;2024-02-16T06:26:45;11.70;99.90
44170;DHT22;29836;52.286;9.576;2024-02-16T06:29:12;11.70;99.90
44170;DHT22;29836;52.286;9.576;2024-02-16T06:31:37;11.80;99.90
44170;DHT22;29836;52.286;9.576;2024-02-16T06:34:09;11.90;99.90
44170;DHT22;29836;52.286;9.576;2024-02-16T06:36:35;11.90;99.90
44170;DHT22;29836;52.286;9.576;2024-02-16T06:39:00;11.90;99.90
44170;DHT22;29836;52.286;9.576;2024-02-16T06:41:26;11.80;99.90
44170;DHT22;29836;52.286;9.576;2024-02-16T06:43:52;11.80;99.90
44170;DHT22;29836;52.286;9.576;2024-02-16T06:46:17;11.90;99.90
44170;DHT22;29836;52.286;9.576;2024-02-16T06:48:43;11.80;99.90
44170;DHT22;29836;52.286;9.576;2024-02-16T06:51:08;11.70;99.90
44170;DHT22;29836;52.286;9.576;2024-02-16T06:53:34;11.70;99.90
44170;DHT22;29836;52.286;9.576;2024-02-16T06:55:59;11.70;99.90
44170;DHT22;29836;52.286;9.576;2024-02-16T06:58:25;11.60;99.90
44170;DHT22;29836;52.286;9.576;2024-02-16T07:00:50;11.70;99.90
44170;DHT22;29836;52.286;9.576;2024-02-16T07:03:17;11.60;99.90
44170;DHT22;29836;52.286;9.576;2024-02-16T07:05:43;11.60;99.90
44170;DHT22;29836;52.286;9.576;2024-02-16T07:08:09;11.50;99.90
44170;DHT22;29836;52.286;9.576;2024-02-16T07:10:34;11.60;99.90
44170;DHT22;29836;52.286;9.576;2024-02-16T07:13:00;11.60;99.90
44170;DHT22;29836;52.286;9.576;2024-02-16T07:15:26;11.60;99.90
44170;DHT22;29836;52.286;9.576;2024-02-16T07:17:52;11.70;99.90
44170;DHT22;29836;52.286;9.576;2024-02-16T07:20:18;11.60;99.90
44170;DHT22;29836;52.286;9.576;2024-02-16T07:22:44;11.60;99.90
44170;DHT22;29836;52.286;9.576;2024-02-16T07:25:12;11.60;99.90
44170;DHT22;29836;52.286;9.576;2024-02-16T07:27:38;11.70;99.90
44170;DHT22;29836;52.286;9.576;2024-02-16T07:30:04;11.70;99.90
44170;DHT22;29836;52.286;9.576;2024-02-16T07:32:30;11.70;99.90
44170;DHT22;29836;52.286;9.576;2024-02-16T07:34:55;11.80;99.90
44170;DHT22;29836;52.286;9.576;2024-02-16T07:37:21;11.90;99.90
44170;DHT22;29836;52.286;9.576;2024-02-16T07:39:46;12.00;99.90
44170;DHT22;29836;52.286;9.576;2024-02-16T07:42:12;12.10;99.90
44170;DHT22;29836;52.286;9.576;2024-02-16T07:44:38;12.20;99.90
44170;DHT22;29836;52.286;9.576;2024-02-16T07:47:04;12.40;99.90
44170;DHT22;29836;52.286;9.576;2024-02-16T07:49:30;12.40;99.90
44170;DHT22;29836;52.286;9.576;2024-02-16T07:51:56;12.60;99.90
44170;DHT22;29836;52.286;9.576;2024-02-16T07:54:21;12.60;99.90
44170;DHT22;29836;52.286;9.576;2024-02-16T07:56:47;12.60;99.90
44170;DHT22;29836;52.286;9.576;2024-02-16T07:59:12;12.70;99.90
44170;DHT22;29836;52.286;9.576;2024-02-16T08:01:38;12.80;99.90
44170;DHT22;29836;52.286;9.576;2024-02-16T08:04:04;12.80;99.90
44170;DHT22;29836;52.286;9.576;2024-02-16T08:06:30;12.80;99.90
44170;DHT22;29836;52.286;9.576;2024-02-16T08:08:55;12.90;99.90
44170;DHT22;29836;52.286;9.576;2024-02-16T08:11:22;12.90;99.90
44170;DHT22;29836;52.286;9.576;2024-02-16T08:13:47;12.70;99.90
44170;DHT22;29836;52.286;9.576;2024-02-16T08:16:13;12.80;99.90
44170;DHT22;29836;52.286;9.576;2024-02-16T08:18:38;12.70;99.90
44170;DHT22;29836;52.286;9.576;2024-02-16T08:21:04;12.80;99.90
44170;DHT22;29836;52.286;9.576;2024-02-16T08:23:29;12.90;99.90
44170;DHT22;29836;52.286;9.576;2024-02-16T08:25:56;12.80;99.90
44170;DHT22;29836;52.286;9.576;2024-02-16T08:28:22;12.90;99.90
44170;DHT22;29836;52.286;9.576;2024-02-16T08:30:48;12.90;99.90
44170;DHT22;29836;52.286;9.576;2024-02-16T08:33:13;12.90;99.90
44170;DHT22;29836;52.286;9.576;2024-02-16T08:35:39;12.90;99.90
44170;DHT22;29836;52.286;9.576;2024-02-16T08:38:04;13.00;99.90
44170;DHT22;29836;52.286;9.576;2024-02-16T08:40:30;12.90;99.90
44170;DHT22;29836;52.286;9.576;2024-02-16T08:42:55;13.00;99.90
44170;DHT22;29836;52.286;9.576;2024-02-16T08:45:21;13.00;99.90
44170;DHT22;29836;52.286;9.576;2024-02-16T08:47:46;13.20;99.90
44170;DHT22;29836;52.286;9.576;2024-02-16T08:50:12;13.40;99.90
44170;DHT22;29836;52.286;9.576;2024-02-16T08:52:38;13.30;99.90
44170;DHT22;29836;52.286;9.576;2024-02-16T08:55:04;13.30;99.90
44170;DHT22;29836;52.286;9.576;2024-02-16T08:57:31;13.10;99.90
44170;DHT22;29836;52.286;9.576;2024-02-16T08:59:57;13.10;99.90
44170;DHT22;29836;52.286;9.576;2024-02-16T09:02:22;13.20;99.90
44170;DHT22;29836;52.286;9.576;2024-02-16T09:04:48;13.10;99.90
44170;DHT22;29836;52.286;9.576;2024-02-16T09:07:14;13.00;99.90
44170;DHT22;29836;52.286;9.576;2024-02-16T09:09:39;13.00;99.90
44170;DHT22;29836;52.286;9.576;2024-02-16T09:12:05;13.00;99.90
44170;DHT22;29836;52.286;9.576;2024-02-16T09:14:30;12.90;99.90
44170;DHT22;29836;52.286;9.576;2024-02-16T09:16:57;13.00;99.90
44170;DHT22;29836;52.286;9.576;2024-02-16T09:19:23;13.10;99.90
44170;DHT22;29836;52.286;9.576;2024-02-16T09:21:49;13.10;99.90
44170;DHT22;29836;52.286;9.576;2024-02-16T09:24:16;13.20;99.90
44170;DHT22;29836;52.286;9.576;2024-02-16T09:26:44;13.30;99.90
44170;DHT22;29836;52.286;9.576;2024-02-16T09:29:12;13.30;99.90
44170;DHT22;29836;52.286;9.576;2024-02-16T09:31:38;13.40;99.90
44170;DHT22;29836;52.286;9.576;2024-02-16T09:34:05;13.50;99.90
44170;DHT22;29836;52.286;9.576;2024-02-16T09:36:30;13.50;99.90
44170;DHT22;29836;52.286;9.576;2024-02-16T09:38:56;13.50;99.90
44170;DHT22;29836;52.286;9.576;2024-02-16T09:41:22;13.50;99.90
44170;DHT22;29836;52.286;9.576;2024-02-16T09:43:48;13.30;99.90
44170;DHT22;29836;52.286;9.576;2024-02-16T09:46:15;13.40;99.90
44170;DHT22;29836;52.286;9.576;2024-02-16T09:48:43;13.40;99.90
44170;DHT22;29836;52.286;9.576;2024-02-16T09:51:13;13.50;99.90
44170;DHT22;29836;52.286;9.576;2024-02-16T09:53:39;13.60;99.90
44170;DHT22;29836;52.286;9.576;2024-02-16T09:56:07;13.70;99.90
44170;DHT22;29836;52.286;9.576;2024-02-16T09:58:35;13.80;99.90
44170;DHT22;29836;52.286;9.576;2024-02-16T10:01:00;13.90;99.90
44170;DHT22;29836;52.286;9.576;2024-02-16T10:03:30;13.90;99.90
44170;DHT22;29836;52.286;9.576;2024-02-16T10:06:08;14.00;99.90
44170;DHT22;29836;52.286;9.576;2024-02-16T10:08:46;14.10;99.90
44170;DHT22;29836;52.286;9.576;2024-02-16T10:11:11;14.30;99.90
44170;DHT22;29836;52.286;9.576;2024-02-16T10:13:37;14.40;99.90
44170;DHT22;29836;52.286;9.576;2024-02-16T10:16:11;14.70;99.90
44170;DHT22;29836;52.286;9.576;2024-02-16T10:18:38;14.70;99.90
44170;DHT22;29836;52.286;9.576;2024-02-16T10:21:04;14.70;99.90
44170;DHT22;29836;52.286;9.576;2024-02-16T10:23:30;14.80;99.90
44170;DHT22;29836;52.286;9.576;2024-02-16T10:25:55;14.70;99.90
44170;DHT22;29836;52.286;9.576;2024-02-16T10:28:21;14.70;99.90
44170;DHT22;29836;52.286;9.576;2024-02-16T10:30:58;14.70;99.90
44170;DHT22;29836;52.286;9.576;2024-02-16T10:33:27;14.90;99.90
44170;DHT22;29836;52.286;9.576;2024-02-16T10:35:55;14.90;99.90
44170;DHT22;29836;52.286;9.576;2024-02-16T10:38:22;15.10;99.90
44170;DHT22;29836;52.286;9.576;2024-02-16T10:40:48;15.30;99.90
44170;DHT22;29836;52.286;9.576;2024-02-16T10:43:18;15.70;99.90
44170;DHT22;29836;52.286;9.576;2024-02-16T10:45:43;16.00;99.90
44170;DHT22;29836;52.286;9.576;2024-02-16T10:48:12;16.20;99.90
44170;DHT22;29836;52.286;9.576;2024-02-16T10:50:38;16.40;99.90
44170;DHT22;29836;52.286;9.576;2024-02-16T10:53:12;16.70;99.90
44170;DHT22;29836;52.286;9.576;2024-02-16T10:55:39;17.50;99.90
44170;DHT22;29836;52.286;9.576;2024-02-16T10:58:06;18.50;99.90
44170;DHT22;29836;52.286;9.576;2024-02-16T11:00:33;18.80;99.90
44170;DHT22;29836;52.286;9.576;2024-02-16T11:03:02;19.60;99.90
44170;DHT22;29836;52.286;9.576;2024-02-16T11:05:35;20.50;97.90
44170;DHT22;29836;52.286;9.576;2024-02-16T11:08:11;20.20;97.50
44170;DHT22;29836;52.286;9.576;2024-02-16T11:10:36;19.30;97.80
44170;DHT22;29836;52.286;9.576;2024-02-16T11:13:03;18.80;99.80
44170;DHT22;29836;52.286;9.576;2024-02-16T11:15:34;18.10;99.90
44170;DHT22;29836;52.286;9.576;2024-02-16T11:18:04;17.50;99.90
44170;DHT22;29836;52.286;9.576;2024-02-16T11:20:37;17.30;99.90
44170;DHT22;29836;52.286;9.576;2024-02-16T11:23:08;17.40;99.90
44170;DHT22;29836;52.286;9.576;2024-02-16T11:25:34;17.60;99.90
44170;DHT22;29836;52.286;9.576;2024-02-16T11:28:02;17.80;99.90
44170;DHT22;29836;52.286;9.576;2024-02-16T11:30:28;17.90;99.90
44170;DHT22;29836;52.286;9.576;2024-02-16T11:32:53;17.80;99.90
44170;DHT22;29836;52.286;9.576;2024-02-16T11:35:19;17.70;99.90
44170;DHT22;29836;52.286;9.576;2024-02-16T11:37:44;17.70;99.90
44170;DHT22;29836;52.286;9.576;2024-02-16T11:40:13;17.90;99.90
44170;DHT22;29836;52.286;9.576;2024-02-16T11:42:38;18.10;99.90
44170;DHT22;29836;52.286;9.576;2024-02-16T11:45:04;18.40;99.90
44170;DHT22;29836;52.286;9.576;2024-02-16T11:47:31;18.60;99.90
44170;DHT22;29836;52.286;9.576;2024-02-16T11:52:26;18.30;99.90
44170;DHT22;29836;52.286;9.576;2024-02-16T11:54:51;18.40;99.90
44170;DHT22;29836;52.286;9.576;2024-02-16T11:57:17;18.40;99.90
44170;DHT22;29836;52.286;9.576;2024-02-16T11:59:43;18.10;99.90
44170;DHT22;29836;52.286;9.576;2024-02-16T12:02:17;18.30;99.90
44170;DHT22;29836;52.286;9.576;2024-02-16T12:04:44;18.50;99.90
44170;DHT22;29836;52.286;9.576;2024-02-16T12:07:12;18.80;99.90
44170;DHT22;29836;52.286;9.576;2024-02-16T12:09:39;18.90;99.90
44170;DHT22;29836;52.286;9.576;2024-02-16T12:12:05;19.00;99.90
44170;DHT22;29836;52.286;9.576;2024-02-16T12:14:35;18.90;99.90
44170;DHT22;29836;52.286;9.576;2024-02-16T12:17:00;18.90;99.90
44170;DHT22;29836;52.286;9.576;2024-02-16T12:19:26;19.20;99.70
44170;DHT22;29836;52.286;9.576;2024-02-16T12:21:52;19.20;99.90
44170;DHT22;29836;52.286;9.576;2024-02-16T12:24:18;19.10;99.90
44170;DHT22;29836;52.286;9.576;2024-02-16T12:26:44;19.20;99.60
44170;DHT22;29836;52.286;9.576;2024-02-16T12:29:09;19.20;99.80
44170;DHT22;29836;52.286;9.576;2024-02-16T12:31:39;19.20;99.90
44170;DHT22;29836;52.286;9.576;2024-02-16T12:34:05;19.00;99.90
44170;DHT22;29836;52.286;9.576;2024-02-16T12:36:33;19.00;99.90
44170;DHT22;29836;52.286;9.576;2024-02-16T12:38:59;18.90;99.90
44170;DHT22;29836;52.286;9.576;2024-02-16T12:41:25;18.80;99.90
44170;DHT22;29836;52.286;9.576;2024-02-16T12:43:51;18.50;99.90
44170;DHT22;29836;52.286;9.576;2024-02-16T12:46:16;18.00;99.90
44170;DHT22;29836;52.286;9.576;2024-02-16T12:48:42;17.60;99.90
44170;DHT22;29836;52.286;9.576;2024-02-16T12:51:07;17.50;99.90
44170;DHT22;29836;52.286;9.576;2024-02-16T12:53:33;17.40;99.90
44170;DHT22;29836;52.286;9.576;2024-02-16T12:56:07;17.00;99.90
44170;DHT22;29836;52.286;9.576;2024-02-16T12:58:33;16.80;99.90
44170;DHT22;29836;52.286;9.576;2024-02-16T13:00:59;16.40;99.90
44170;DHT22;29836;52.286;9.576;2024-02-16T13:03:24;16.20;99.90
44170;DHT22;29836;52.286;9.576;2024-02-16T13:05:50;16.10;99.90
44170;DHT22;29836;52.286;9.576;2024-02-16T13:08:15;15.90;99.90
44170;DHT22;29836;52.286;9.576;2024-02-16T13:10:41;15.80;99.90
44170;DHT22;29836;52.286;9.576;2024-02-16T13:13:07;15.80;99.90
44170;DHT22;29836;52.286;9.576;2024-02-16T13:15:33;15.80;99.90
44170;DHT22;29836;52.286;9.576;2024-02-16T13:17:58;15.80;99.90
44170;DHT22;29836;52.286;9.576;2024-02-16T13:20:24;15.80;99.90
44170;DHT22;29836;52.286;9.576;2024-02-16T13:22:50;15.80;99.90
44170;DHT22;29836;52.286;9.576;2024-02-16T13:25:15;15.80;99.90
44170;DHT22;29836;52.286;9.576;2024-02-16T13:27:41;15.70;99.90
44170;DHT22;29836;52.286;9.576;2024-02-16T13:30:07;15.70;99.90
44170;DHT22;29836;52.286;9.576;2024-02-16T13:32:35;15.70;99.90
44170;DHT22;29836;52.286;9.576;2024-02-16T13:35:05;15.70;99.90
44170;DHT22;29836;52.286;9.576;2024-02-16T13:37:31;15.60;99.90
44170;DHT22;29836;52.286;9.576;2024-02-16T13:39:56;15.60;99.90
44170;DHT22;29836;52.286;9.576;2024-02-16T13:42:22;15.50;99.90
44170;DHT22;29836;52.286;9.576;2024-02-16T13:44:47;15.40;99.90
44170;DHT22;29836;52.286;9.576;2024-02-16T13:47:13;15.40;99.90
44170;DHT22;29836;52.286;9.576;2024-02-16T13:49:39;15.60;99.90
44170;DHT22;29836;52.286;9.576;2024-02-16T13:52:04;15.70;99.90
44170;DHT22;29836;52.286;9.576;2024-02-16T13:54:30;15.80;99.90
44170;DHT22;29836;52.286;9.576;2024-02-16T13:56:56;15.80;99.90
44170;DHT22;29836;52.286;9.576;2024-02-16T13:59:21;15.80;99.90
44170;DHT22;29836;52.286;9.576;2024-02-16T14:01:47;15.80;99.90
44170;DHT22;29836;52.286;9.576;2024-02-16T14:04:14;15.80;99.90
44170;DHT22;29836;52.286;9.576;2024-02-16T14:06:40;15.70;99.90
44170;DHT22;29836;52.286;9.576;2024-02-16T14:09:05;15.70;99.90
44170;DHT22;29836;52.286;9.576;2024-02-16T14:11:35;15.70;99.90
44170;DHT22;29836;52.286;9.576;2024-02-16T14:14:01;15.60;99.90
44170;DHT22;29836;52.286;9.576;2024-02-16T14:16:27;15.60;99.90
44170;DHT22;29836;52.286;9.576;2024-02-16T14:18:52;15.70;99.90
44170;DHT22;29836;52.286;9.576;2024-02-16T14:21:18;15.60;99.90
44170;DHT22;29836;52.286;9.576;2024-02-16T14:23:43;15.60;99.90
44170;DHT22;29836;52.286;9.576;2024-02-16T14:26:09;15.60;99.90
44170;DHT22;29836;52.286;9.576;2024-02-16T14:28:35;15.50;99.90
44170;DHT22;29836;52.286;9.576;2024-02-16T14:31:00;15.50;99.90
44170;DHT22;29836;52.286;9.576;2024-02-16T14:33:26;15.40;99.90
44170;DHT22;29836;52.286;9.576;2024-02-16T14:35:52;15.40;99.90
44170;DHT22;29836;52.286;9.576;2024-02-16T14:38:17;15.30;99.90
44170;DHT22;29836;52.286;9.576;2024-02-16T14:40:43;15.30;99.90
44170;DHT22;29836;52.286;9.576;2024-02-16T14:43:08;15.20;99.90
44170;DHT22;29836;52.286;9.576;2024-02-16T14:45:34;15.20;99.90
44170;DHT22;29836;52.286;9.576;2024-02-16T14:47:59;15.20;99.90
44170;DHT22;29836;52.286;9.576;2024-02-16T14:50:25;15.20;99.90
44170;DHT22;29836;52.286;9.576;2024-02-16T14:52:50;15.20;99.90
44170;DHT22;29836;52.286;9.576;2024-02-16T14:55:16;15.30;99.90
44170;DHT22;29836;52.286;9.576;2024-02-16T14:57:42;15.40;99.90
44170;DHT22;29836;52.286;9.576;2024-02-16T15:00:10;15.40;99.90
44170;DHT22;29836;52.286;9.576;2024-02-16T15:02:37;15.40;99.90
44170;DHT22;29836;52.286;9.576;2024-02-16T15:05:06;15.40;99.90
44170;DHT22;29836;52.286;9.576;2024-02-16T15:07:32;15.30;99.90
44170;DHT22;29836;52.286;9.576;2024-02-16T15:09:58;15.30;99.90
44170;DHT22;29836;52.286;9.576;2024-02-16T15:12:23;15.20;99.90
44170;DHT22;29836;52.286;9.576;2024-02-16T15:14:50;15.10;99.90
44170;DHT22;29836;52.286;9.576;2024-02-16T15:17:15;15.00;99.90
44170;DHT22;29836;52.286;9.576;2024-02-16T15:19:41;15.00;99.90
44170;DHT22;29836;52.286;9.576;2024-02-16T15:22:07;14.90;99.90
44170;DHT22;29836;52.286;9.576;2024-02-16T15:24:33;14.80;99.90
44170;DHT22;29836;52.286;9.576;2024-02-16T15:26:59;14.70;99.90